Flight Track Log - Related Links

Times and Time Zones

All times are in EDT time to prevent confusion due to time zone crossing. See the FDX1482 flight status page for this flight to view local times or setup timezone preferences in your user account.


Time Position Orientation Groundspeed Altitude Reporting Facility
EDT Latitude Longitude Course Direction KTS MPH feet Rate Location/Type
Sat 04:41:50 AM 35.0167 -89.9667 73° East 151 174 1,700  Level Memphis TRACON
Sat 04:42:41 AM 34.9833 -89.9667 180° South 195 224 3,000 2,789 Climbing Memphis TRACON
Sat 04:43:44 AM 34.9333 -89.8833 126° Southeast 319 367 7,000 3,509 Climbing Memphis TRACON
Sat 04:45:20 AM 34.9892 -89.7411 64° Northeast 338 389 12,300 3,192 Climbing Memphis Center
Sat 04:46:20 AM 35.0447 -89.6039 64° Northeast 374 430 15,300 3,250 Climbing Memphis Center
Sat 04:47:00 AM 35.2180 -89.2115 73° East  Level FlightAware Approximate
Sat 04:47:20 AM 35.0981 -89.4739 63° Northeast 415 478 18,800  Level Memphis Center
Sat 04:48:20 AM 35.1556 -89.3411 62° Northeast 433 498 22,200 3,100 Climbing Memphis Center
Sat 04:49:20 AM 35.2125 -89.2033 63° Northeast 441 507 25,000 2,400 Climbing Memphis Center
Sat 04:50:20 AM 35.2675 -89.0625 64° Northeast 446 513 27,000 2,400 Climbing Memphis Center
Sat 04:51:20 AM 35.3222 -88.9192 65° Northeast 453 521 29,800 2,500 Climbing Memphis Center
Sat 04:52:20 AM 35.3747 -88.7808 65° Northeast 453 521 32,000 1,800 Climbing Memphis Center
Sat 04:53:20 AM 35.4272 -88.6397 65° Northeast 453 521 33,400 224 Climbing Memphis Center
Sat 04:59:57 AM 35.7880 -87.6830 65° Northeast 35,000 129 Climbing FlightAware ADS-B
Sat 05:00:42 AM 35.8280 -87.5760 65° Northeast 35,000  Level FlightAware ADS-B
Sat 05:01:12 AM 35.8540 -87.5050 66° East 35,000  Level FlightAware ADS-B
Sat 05:01:57 AM 35.8940 -87.3980 65° Northeast 35,000  Level FlightAware ADS-B
Sat 05:02:27 AM 35.9190 -87.3290 66° East 35,000  Level FlightAware ADS-B
Sat 05:03:07 AM 35.9530 -87.2350 66° East 35,000  Level FlightAware ADS-B
Sat 05:03:42 AM 35.9800 -87.1590 66° East 35,000  Level FlightAware ADS-B
Sat 05:04:22 AM 36.0140 -87.0660 66° East 35,000  Level FlightAware ADS-B
Sat 05:05:02 AM 36.0470 -86.9750 66° East 35,000  Level FlightAware ADS-B
Sat 05:05:37 AM 36.0780 -86.8900 66° East 35,000  Level FlightAware ADS-B
Sat 05:05:44 AM 36.0844 -86.8716 67° East 435 501 35,000  Level FlightAware ADS-B
Sat 05:06:16 AM 36.1064 -86.8109 66° East 194 223 35,000  Level FlightAware ADS-B
Sat 05:06:48 AM 36.1382 -86.7220 66° East 463 533 35,000  Level FlightAware ADS-B
Sat 05:07:21 AM 36.1615 -86.6571 66° East 320 368 35,000  Level FlightAware ADS-B
Sat 05:07:52 AM 36.1926 -86.5702 66° East 465 535 35,000  Level FlightAware ADS-B
Sat 05:08:37 AM 36.2300 -86.4660 66° East 35,000  Level FlightAware ADS-B
Sat 05:09:18 AM 36.2655 -86.3642 67° East 458 527 35,000 61 Level FlightAware ADS-B
Sat 05:10:02 AM 36.3010 -86.2640 66° East 35,100 103 Climbing FlightAware ADS-B
Sat 05:10:16 AM 36.3115 -86.2343 66° East 426 490 35,100  Level FlightAware ADS-B
Sat 05:10:47 AM 36.3244 -86.1975 66° East 13 15 35,100  Level FlightAware ADS-B
Sat 05:11:17 AM 36.3683 -86.0726 66° East 465 535 35,100  Level FlightAware ADS-B
Sat 05:11:47 AM 36.3943 -85.9986 66° East 469 540 35,100  Level FlightAware ADS-B
Sat 05:12:18 AM 36.4211 -85.9220 66° East 470 541 35,100  Level FlightAware ADS-B
Sat 05:13:16 AM 36.4715 -85.7770 67° East 477 549 35,100  Level FlightAware ADS-B
Sat 05:13:47 AM 36.4978 -85.7012 67° East 455 524 35,100  Level FlightAware ADS-B
Sat 05:14:18 AM 36.5253 -85.6219 67° East 479 551 35,100  Level FlightAware ADS-B
Sat 05:14:48 AM 36.5517 -85.5454 67° East 464 534 35,100  Level FlightAware ADS-B
Sat 05:15:19 AM 36.5783 -85.4681 67° East 470 541 35,100  Level FlightAware ADS-B
Sat 05:15:57 AM 36.6104 -85.3746 67° East 453 521 35,100  Level FlightAware ADS-B
Sat 05:16:28 AM 36.6362 -85.2992 67° East 470 541 35,100  Level FlightAware ADS-B
Sat 05:16:59 AM 36.6624 -85.2223 67° East 458 527 35,100  Level FlightAware ADS-B
Sat 05:17:33 AM 36.6916 -85.1367 67° East 486 559 35,100  Level FlightAware ADS-B
Sat 05:18:04 AM 36.7179 -85.0594 67° East 463 533 35,100  Level FlightAware ADS-B
Sat 05:18:36 AM 36.7448 -84.9798 67° East 471 542 35,100  Level FlightAware ADS-B
Sat 05:19:06 AM 36.7700 -84.9049 67° East 476 548 35,100  Level FlightAware ADS-B
Sat 05:19:37 AM 36.7960 -84.8275 67° East 471 542 35,100  Level FlightAware ADS-B
Sat 05:20:08 AM 36.8215 -84.7511 67° East 470 541 35,100  Level FlightAware ADS-B
Sat 05:21:04 AM 36.8687 -84.6103 67° East 471 542 35,100  Level FlightAware ADS-B
Sat 05:21:41 AM 36.8998 -84.5171 67° East 469 540 35,100  Level FlightAware ADS-B
Sat 05:22:11 AM 36.9249 -84.4418 67° East 469 540 35,100  Level FlightAware ADS-B
Sat 05:22:42 AM 36.9510 -84.3633 67° East 484 557 35,100  Level FlightAware ADS-B
Sat 05:23:12 AM 36.9760 -84.2873 68° East 473 544 35,100  Level FlightAware ADS-B
Sat 05:23:42 AM 37.0013 -84.2109 67° East 476 548 35,100  Level FlightAware ADS-B
Sat 05:24:12 AM 37.0269 -84.1335 67° East 469 540 35,100  Level FlightAware ADS-B
Sat 05:24:43 AM 37.0517 -84.0572 68° East 472 543 35,100  Level FlightAware ADS-B
Sat 05:25:13 AM 37.0772 -83.9795 68° East 477 549 35,100  Level FlightAware ADS-B
Sat 05:25:43 AM 37.1022 -83.9026 68° East 482 555 35,100  Level FlightAware ADS-B
Sat 05:26:18 AM 37.1314 -83.8134 68° East 491 565 35,100 -71 Level FlightAware ADS-B
Sat 05:27:07 AM 37.1721 -83.6884 68° East 469 540 35,000 -76 Descending FlightAware ADS-B
Sat 05:27:37 AM 37.1961 -83.6138 68° East 476 548 35,000  Level FlightAware ADS-B
Sat 05:28:08 AM 37.2201 -83.5388 68° East 468 539 35,000  Level FlightAware ADS-B
Sat 05:28:38 AM 37.2449 -83.4621 68° East 472 543 35,000  Level FlightAware ADS-B
Sat 05:29:48 AM 37.3015 -83.2853 68° East 471 542 35,000  Level FlightAware ADS-B
Sat 05:30:19 AM 37.3262 -83.2082 68° East 472 543 35,000  Level FlightAware ADS-B
Sat 05:30:55 AM 37.3551 -83.1171 68° East 464 534 35,000  Level FlightAware ADS-B
Sat 05:31:26 AM 37.3808 -83.0357 68° East 477 549 35,000  Level FlightAware ADS-B
Sat 05:32:00 AM 37.4081 -82.9488 68° East 477 549 35,000  Level FlightAware ADS-B
Sat 05:32:41 AM 37.4407 -82.8452 68° East 479 551 35,000  Level FlightAware ADS-B
Sat 05:33:18 AM 37.4706 -82.7502 68° East 476 548 35,000  Level FlightAware ADS-B
Sat 05:36:32 AM 37.6210 -82.2508 69° East 472 543 35,000  Level FlightAware ADS-B
Sat 05:37:04 AM 37.6450 -82.1691 70° East 470 541 35,000  Level FlightAware ADS-B
Sat 05:37:34 AM 37.6689 -82.0883 69° East 479 551 35,000  Level FlightAware ADS-B
Sat 05:38:05 AM 37.6924 -82.0090 69° East 480 552 35,000  Level FlightAware ADS-B
Sat 05:38:36 AM 37.7166 -81.9273 69° East 474 545 35,000  Level FlightAware ADS-B
Sat 05:39:17 AM 37.7471 -81.8229 70° East 459 528 35,000  Level FlightAware ADS-B
Sat 05:39:48 AM 37.7707 -81.7417 70° East 470 541 35,000  Level FlightAware ADS-B
Sat 05:40:42 AM 37.8080 -81.6120 70° East 35,000  Level FlightAware ADS-B
Sat 05:40:49 AM 37.8160 -81.5862 69° East 468 539 35,000  Level FlightAware ADS-B
Sat 05:41:29 AM 37.8458 -81.4832 70° East 469 540 35,000  Level FlightAware ADS-B
Sat 05:42:07 AM 37.8730 -81.3890 70° East 35,000  Level FlightAware ADS-B
Sat 05:42:21 AM 37.8839 -81.3504 70° East 469 540 35,000  Level FlightAware ADS-B
Sat 05:43:32 AM 37.9372 -81.1648 70° East 471 542 35,000  Level FlightAware ADS-B
Sat 05:44:18 AM 37.9712 -81.0456 70° East 476 548 35,000 -976 Level FlightAware ADS-B
Sat 05:44:52 AM 37.9930 -80.9690 70° East 35,000 -998 Level FlightAware ADS-B
Sat 05:46:22 AM 38.0610 -80.7290 70° East 35,000 -1,014 Level FlightAware ADS-B
Sat 05:47:02 AM 38.0900 -80.6230 71° East 35,000 -1,062 Level FlightAware ADS-B
Sat 05:48:07 AM 38.1400 -80.4470 70° East 35,000 -1,085 Level FlightAware ADS-B
Sat 05:48:57 AM 38.1820 -80.3210 67° East 35,000 -1,124 Level FlightAware ADS-B
Sat 05:50:07 AM 38.2450 -80.1500 65° Northeast 35,000 -1,156 Level FlightAware ADS-B
Sat 05:50:47 AM 38.2820 -80.0500 65° Northeast 35,000 -1,204 Level FlightAware ADS-B
Sat 05:51:27 AM 38.3220 -79.9410 65° Northeast 35,000 -1,233 Level FlightAware ADS-B
Sat 05:52:12 AM 38.3630 -79.8290 65° Northeast 35,000 -1,263 Level FlightAware ADS-B
Sat 05:52:52 AM 38.4010 -79.7270 65° Northeast 35,000 -1,300 Level FlightAware ADS-B
Sat 05:54:02 AM 38.4640 -79.5520 65° Northeast 35,000 -1,334 Level FlightAware ADS-B
Sat 05:55:02 AM 38.5180 -79.3960 66° East 35,000 -1,398 Level FlightAware ADS-B
Sat 05:56:07 AM 38.5250 -79.3760 66° East 35,000 -1,458 Level FlightAware ADS-B
Sat 05:56:32 AM 38.5960 -79.1690 66° East 35,000 -1,529 Level FlightAware ADS-B
Sat 05:57:17 AM 38.6360 -79.0510 67° East 35,000 -1,559 Level FlightAware ADS-B
Sat 05:58:02 AM 38.6770 -78.9310 66° East 35,000 -1,614 Level FlightAware ADS-B
Sat 05:58:42 AM 38.7120 -78.8280 66° East 34,800 -1,674 Descending FlightAware ADS-B
Sat 05:59:27 AM 38.7500 -78.7150 67° East 32,800 -1,721 Descending FlightAware ADS-B
Sat 06:00:07 AM 38.7850 -78.6130 66° East 30,600 -1,683 Descending FlightAware ADS-B
Sat 06:00:47 AM 38.8200 -78.5070 67° East 28,200 -1,624 Descending FlightAware ADS-B
Sat 06:01:32 AM 38.8580 -78.3920 67° East 25,800 -1,549 Descending FlightAware ADS-B
Sat 06:02:12 AM 38.8900 -78.2970 67° East 24,100 -1,475 Descending FlightAware ADS-B
Sat 06:02:52 AM 38.9230 -78.1970 67° East 22,300 -1,430 Descending FlightAware ADS-B
Sat 06:03:37 AM 38.9570 -78.0950 67° East 20,400 -1,375 Descending FlightAware ADS-B
Sat 06:04:17 AM 38.9850 -78.0080 67° East 18,700 -1,316 Descending FlightAware ADS-B
Sat 06:05:02 AM 39.0170 -77.9110 67° East 16,500 -1,257 Descending FlightAware ADS-B
Sat 06:05:42 AM 39.0450 -77.8260 67° East 15,000 -1,162 Descending FlightAware ADS-B
Sat 06:06:22 AM 39.0730 -77.7490 65° Northeast 14,600 -1,105 Descending FlightAware ADS-B
Sat 06:07:07 AM 39.1060 -77.6620 64° Northeast 14,600 -1,133 Level FlightAware ADS-B
Sat 06:07:47 AM 39.1350 -77.5860 64° Northeast 13,300 -1,209 Descending FlightAware ADS-B
Sat 06:08:32 AM 39.1650 -77.5030 65° Northeast 11,600 -1,162 Descending FlightAware ADS-B
Sat 06:09:12 AM 39.1900 -77.4250 68° East 10,600 -1,077 Descending FlightAware ADS-B
Sat 06:09:57 AM 39.1920 -77.3470 88° East 10,300 -1,046 Descending FlightAware ADS-B
Sat 06:10:22 AM 39.1920 -77.3090 90° East 9,400 -1,104 Descending FlightAware ADS-B
Sat 06:10:52 AM 39.1910 -77.2590 91° East 8,200 -1,048 Descending FlightAware ADS-B
Sat 06:11:17 AM 39.1910 -77.2200 90° East 7,300 -957 Descending FlightAware ADS-B
Sat 06:11:47 AM 39.1900 -77.1800 92° East 6,100 -886 Descending FlightAware ADS-B
Sat 06:12:02 AM 39.1900 -77.1530 90° East 5,500 -769 Descending FlightAware ADS-B
Sat 06:12:27 AM 39.1900 -77.1190 90° East 4,600 -704 Descending FlightAware ADS-B
Sat 06:12:57 AM 39.1890 -77.0750 92° East 3,900 -600 Descending FlightAware ADS-B
Sat 06:13:27 AM 39.1890 -77.0380 90° East 3,700 -525 Descending FlightAware ADS-B
Sat 06:14:07 AM 39.1900 -76.9950 88° East 3,300 -538 Descending FlightAware ADS-B
Sat 06:14:12 AM 39.1900 -76.9880 90° East 3,200 -528 Descending FlightAware ADS-B
Sat 06:14:47 AM 39.1890 -76.9450 92° East 2,700 -514 Descending FlightAware ADS-B
Sat 06:15:02 AM 39.1870 -76.9280 99° East 2,700 -457 Level FlightAware ADS-B
Sat 06:15:27 AM 39.1860 -76.9070 94° East 2,700 -492 Level FlightAware ADS-B
Sat 06:15:52 AM 39.1850 -76.8810 93° East 2,700 -565 Level FlightAware ADS-B
Sat 06:16:22 AM 39.1830 -76.8500 95° East 2,200 -662 Descending FlightAware ADS-B
Sat 06:16:57 AM 39.1810 -76.8160 94° East 1,700 -574 Descending FlightAware ADS-B
Sat 06:17:17 AM 39.1810 -76.8020 90° East 1,500 -450 Descending FlightAware ADS-B
Sat 06:18:17 AM 39.1833 -76.7500 90° East 128 147 1,100 -550 Descending Potomac TRACON
Sat 06:19:17 AM 39.1833 -76.7000 90° East 123 142 400 -700 Descending Potomac TRACON

Login

Don't have an account? Register now (free) for customized features, flight alerts, and more!